Harlingen, TX

8:13 AM CDT on June 30, 2015 (GMT -0500)
KNIGHTWOOD/WD5ADC | | Change Station
CLOSE
Current Station
Personal Weather Station
Location: Harlingen, TX
Elevation: 49 ft
Nearby Weather Stations

Elev 49 ft 26.22 °N, 97.69 °W | Updated 3 minutes ago

Partly Cloudy
Partly Cloudy
81.6 °F
Feels Like 88 °F
N
2.0
Wind Variable Wind from ENE
Gusts 3.0 mph

Today
High -- | Low -- °F
--% Chance of Precip.
Yesterday
High -- | Low -- °F
Precip. -- in
6:41 AM 8:27 PM
Waxing Gibbous, 97% visible
Pressure 29.98 in
Visibility 10.0 miles
Clouds Clear
Heat Index 88 °F
Dew Point 75 °F
Humidity 79%
Rainfall 0.00 in
Snow Depth Not available.
UV 1 out of 12
Pollen 3.80 out of 12
Air Quality Not available.
Flu Activity Local Activity
METAR KHRL 301252Z 13006KT 10SM CLR 27/22 A2998 RMK AO2 SLP150 T02670222

More Conditions Fewer Conditions

Pressure 29.98 in
Visibility 10.0 miles
Clouds Clear
Heat Index 88 °F
Dew Point 75 °F
Humidity 79%
Rainfall 0.00 in
Snow Depth Not available.
UV 1 out of 12
Pollen 3.80 out of 12
Air Quality Not available.
Flu Activity Local Activity
METAR KHRL 301252Z 13006KT 10SM CLR 27/22 A2998 RMK AO2 SLP150 T02670222

More Conditions Fewer Conditions

10-Day Weather Forecast

×

Almanac

Astronomy

Jun. 30, 2015 Rise Set
Actual Time
Civil Twilight
Nautical Twilight
Astronomical Twilight
Moon
Length of Visible Light
Length of Day
Tomorrow will be .
, % of the Moon is Illuminated

Today's Extremes

State Highs State Lows

Community

WunderPhotos

Upload Photos

1,833,994 photos uploaded!

WunderBlogs® & News

Nearby

Air Quality

  Air Quality AQ Index Pollutant
Not available.

Snow Depth

Station Depth Elevation

Earthquake Activity

City Distance Mag. Time & Date
Minimum magnitude displayed is 2.5.

Coastal Water Temperatures

Place Temperature

Stations

Nearby Weather Stations

Station Location Temp. Windchill Dew Point Humidity Wind Precip. Elev Updated Type